Twin Springs, Nevada Weather observations

Data are for observation ending at time listed.
 Day   Time    Ave.   Ave.  Ave.  Vector   Max.   Stn.    Total    Solar   Ave.  
  of    of     Air    Rel.  Wind   Wind    Wind   Baro.  Precip.   Rad.    Soil  
Year   Day     Temp.  Hum.  Speed  Dir.    Gust   Pres.                    Temp. 
2014   (PST)    F      %     mph   deg.    mph     mb.     in.     W/m2     F   
------------------------------------------------------------------------------
 261    0:00   73.5    41    8.5   158     18.8    841     0.00       0    78.4
 261    1:00   72.6    42    7.3   155     17.4    841     0.00       0    77.6
 261    2:00   70.3    46    7.2   108     12.2    841     0.00       0    76.9
 261    3:00   69.2    49    5.9   124     13.5    840     0.00       0    76.2
 261    4:00   69.0    50    8.8   112     15.5    840     0.00       0    75.5
 261    5:00   68.6    51    8.6   105     14.0    840     0.00       0    74.9
 261    6:00   67.1    56    5.5   120     13.1    840     0.00       7    74.3
 261    7:00   71.2    50    3.2   211      9.0    841     0.00     211    73.7
 261    8:00   73.5    47    7.4   160     16.9    841     0.00     184    73.5
 261    9:00   76.5    42   11.5   133     22.2    841     0.00     453    73.8
 261   10:00   81.0    35   14.0   138     24.4    840     0.00     786    74.7
 261   11:00   82.3    31   13.2   142     24.6    840     0.00     609    76.5
 261   12:00   84.4    25   12.9   150     24.0    839     0.00     803    78.1
 261   13:00   86.0    21   12.3   166     24.5    838     0.00     858    79.6
 261   14:00   86.9    14   14.1   164     27.4    838     0.00     779    81.9
 261   15:00   87.2    11   11.2   183     21.8    838     0.00     635    83.6
 261   16:00   86.1     9   11.3   183     23.8    837     0.00     446    83.9
 261   17:00   83.7     9    9.1   190     18.5    838     0.00     226    84.1
 261   18:00   80.1    10    8.0   194     15.9    838     0.00      38    83.8
 261   19:00   75.9    12    7.5   190     13.5    838     0.00       0    82.7
 261   20:00   74.6    13    5.9   196     11.3    839     0.00       0    81.4
 261   21:00   74.0    14    7.4   178     14.4    840     0.00       0    80.1
 261   22:00   67.7    18    4.9   143     10.0    840     0.00       0    79.0

Return to Twin Springs, Nevada graphs page.


Western Regional Climate Center,wrcc@dri.edu